Time;durP1;ratioP1;P1;durP2;ratioP2;P2;SDS_P1;SDS_P2;PMS_P1;PMS_P2;Temp;Humidity;BMP_temperature;BMP_pressure;BME280_temperature;BME280_humidity;BME280_pressure;Samples;Min_cycle;Max_cycle;Signal;HPM_P1;HPM_P2
2022/04/20 00:00:48;;;;;;;2.65;1.73;;;19.80;47.70;;;;;;6170757;28;20062;-71
2022/04/20 00:03:49;;;;;;;2.75;1.50;;;19.80;47.60;;;;;;6170726;28;20393;-69
2022/04/20 00:06:50;;;;;;;3.83;1.85;;;19.80;47.60;;;;;;6171283;28;20042;-71
2022/04/20 00:09:50;;;;;;;3.08;1.77;;;19.80;47.60;;;;;;6170674;28;20493;-72
2022/04/20 00:12:51;;;;;;;2.63;1.60;;;19.80;47.60;;;;;;6169386;28;20065;-71
2022/04/20 00:15:51;;;;;;;2.42;1.60;;;19.80;47.60;;;;;;6170819;28;20031;-70
2022/04/20 00:18:52;;;;;;;2.17;1.65;;;19.80;47.70;;;;;;6170615;28;20497;-71
2022/04/20 00:21:52;;;;;;;3.10;2.00;;;19.80;47.60;;;;;;6170372;28;20026;-72
2022/04/20 00:24:53;;;;;;;2.42;1.75;;;19.80;47.60;;;;;;6170288;28;20027;-71
2022/04/20 00:27:53;;;;;;;2.83;1.50;;;19.80;47.50;;;;;;6170205;28;20421;-71
2022/04/20 00:30:54;;;;;;;2.20;1.70;;;19.80;47.60;;;;;;6154783;28;20035;-71
2022/04/20 00:33:54;;;;;;;2.53;1.67;;;19.80;47.60;;;;;;6146570;29;20523;-71
2022/04/20 00:36:55;;;;;;;2.05;1.40;;;19.80;47.70;;;;;;6149112;28;20035;-70
2022/04/20 00:39:55;;;;;;;3.67;1.80;;;19.80;47.60;;;;;;6151221;29;20035;-71
2022/04/20 00:42:56;;;;;;;2.47;1.70;;;19.80;47.60;;;;;;6151576;29;20035;-71
2022/04/20 00:45:59;;;;;;;2.00;1.48;;;19.80;47.60;;;;;;6127253;29;20118;-71
2022/04/20 00:49:01;;;;;;;3.92;1.60;;;19.80;47.50;;;;;;6127355;29;20090;-72
2022/04/20 00:52:04;;;;;;;2.53;1.80;;;19.80;47.70;;;;;;6138545;28;20241;-71
2022/04/20 00:55:05;;;;;;;2.28;1.55;;;19.80;47.60;;;;;;6168196;28;20105;-71
2022/04/20 00:58:06;;;;;;;2.40;1.50;;;19.80;47.60;;;;;;6175648;28;20038;-71
2022/04/20 01:01:08;;;;;;;2.28;1.27;;;19.80;47.70;;;;;;6174372;28;20133;-70
2022/04/20 01:04:09;;;;;;;2.67;1.83;;;19.80;47.60;;;;;;6174795;28;20023;-71
2022/04/20 01:07:14;;;;;;;2.25;1.40;;;19.80;47.60;;;;;;6175668;28;20121;-70
2022/04/20 01:10:14;;;;;;;2.22;1.63;;;19.80;47.60;;;;;;6174663;28;20027;-71
2022/04/20 01:13:15;;;;;;;2.65;1.42;;;19.80;47.70;;;;;;6174636;28;20041;-71
2022/04/20 01:16:15;;;;;;;2.00;1.40;;;19.80;47.50;;;;;;6174539;28;20057;-70
2022/04/20 01:19:16;;;;;;;2.45;1.40;;;19.80;47.70;;;;;;6174437;28;20039;-72
2022/04/20 01:22:16;;;;;;;1.65;1.20;;;19.80;47.60;;;;;;6174301;28;20389;-71
2022/04/20 01:25:17;;;;;;;2.03;1.40;;;19.80;47.70;;;;;;6174971;28;20054;-71
2022/04/20 01:28:17;;;;;;;2.05;1.33;;;19.80;47.60;;;;;;6174628;28;20520;-71
2022/04/20 01:31:18;;;;;;;2.35;1.23;;;19.80;47.60;;;;;;6155223;28;20027;-72
2022/04/20 01:34:19;;;;;;;1.83;1.30;;;19.80;47.50;;;;;;6149986;29;20030;-71
2022/04/20 01:37:19;;;;;;;2.13;1.40;;;19.80;47.60;;;;;;6149979;29;20027;-71
2022/04/20 01:40:20;;;;;;;2.42;1.48;;;19.80;48.00;;;;;;6149874;29;20023;-71
2022/04/20 01:43:20;;;;;;;1.60;1.02;;;19.80;47.60;;;;;;6146782;29;20084;-70
2022/04/20 01:46:21;;;;;;;2.33;1.48;;;19.80;47.70;;;;;;6126011;29;20078;-71
2022/04/20 01:49:21;;;;;;;1.27;1.15;;;19.70;47.60;;;;;;6125579;29;20546;-71
2022/04/20 01:52:22;;;;;;;2.15;1.30;;;19.80;47.70;;;;;;6124641;29;20252;-70
2022/04/20 01:55:22;;;;;;;2.60;1.52;;;19.80;47.60;;;;;;6167287;28;20517;-72
2022/04/20 01:58:23;;;;;;;2.08;1.33;;;19.80;47.70;;;;;;6173566;28;20081;-71
2022/04/20 02:04:42;;;;;;;2.65;1.30;;;19.80;47.60;;;;;;6173565;28;20034;-71
2022/04/20 02:07:44;;;;;;;2.20;1.40;;;19.80;47.70;;;;;;6173240;28;20038;-72
2022/04/20 02:10:45;;;;;;;1.70;1.05;;;19.70;47.60;;;;;;6173345;28;20031;-71
2022/04/20 02:13:45;;;;;;;2.65;1.30;;;19.70;47.60;;;;;;6172715;28;20114;-72
2022/04/20 02:16:46;;;;;;;2.70;1.23;;;19.80;47.70;;;;;;6173225;28;20023;-71
2022/04/20 02:19:46;;;;;;;1.88;1.10;;;19.80;47.60;;;;;;6173062;28;20030;-71
2022/04/20 02:22:47;;;;;;;1.70;1.13;;;19.80;47.60;;;;;;6173292;28;20033;-71
2022/04/20 02:25:47;;;;;;;1.73;1.27;;;19.80;47.70;;;;;;6172816;28;20397;-72
2022/04/20 02:28:48;;;;;;;2.42;1.65;;;19.70;47.60;;;;;;6172785;28;20030;-71
2022/04/20 02:31:49;;;;;;;1.70;1.20;;;19.70;47.60;;;;;;6149833;28;20097;-71
2022/04/20 02:34:49;;;;;;;1.85;1.20;;;19.70;47.60;;;;;;6148907;29;20393;-71
2022/04/20 02:37:50;;;;;;;1.98;1.35;;;19.70;47.70;;;;;;6148945;29;20094;-71
2022/04/20 02:40:52;;;;;;;1.20;1.10;;;19.70;48.20;;;;;;6149599;29;20027;-71
2022/04/20 02:43:52;;;;;;;1.30;1.00;;;19.70;47.50;;;;;;6141147;29;20122;-70
2022/04/20 02:46:53;;;;;;;1.70;1.17;;;19.70;47.60;;;;;;6124677;29;20043;-70
2022/04/20 02:49:54;;;;;;;1.58;1.13;;;19.70;47.50;;;;;;6124441;29;20039;-71
2022/04/20 02:52:55;;;;;;;1.63;1.08;;;19.70;47.60;;;;;;6126775;28;20091;-71
2022/04/20 02:55:56;;;;;;;2.08;1.50;;;19.70;47.60;;;;;;6172237;28;20031;-71
2022/04/20 02:58:56;;;;;;;2.35;1.08;;;19.70;47.60;;;;;;6171307;28;20393;-71
2022/04/20 03:01:57;;;;;;;1.02;0.90;;;19.70;47.60;;;;;;6172203;28;20031;-71
2022/04/20 03:04:57;;;;;;;1.27;1.08;;;19.70;47.60;;;;;;6171977;28;20039;-70
2022/04/20 03:07:58;;;;;;;1.55;1.10;;;19.70;47.70;;;;;;6171844;28;20105;-71
2022/04/20 03:10:59;;;;;;;1.55;1.20;;;19.70;47.60;;;;;;6171953;28;20498;-70
2022/04/20 03:13:59;;;;;;;1.33;1.20;;;19.70;47.60;;;;;;6170457;28;20026;-72
2022/04/20 03:17:00;;;;;;;1.20;1.00;;;19.70;47.70;;;;;;6171252;28;20061;-71
2022/04/20 03:20:00;;;;;;;1.55;1.13;;;19.70;47.60;;;;;;6171526;28;20110;-71
2022/04/20 03:23:01;;;;;;;1.45;1.00;;;19.70;47.60;;;;;;6171799;28;20039;-70
2022/04/20 03:26:03;;;;;;;1.65;1.25;;;19.70;47.60;;;;;;6171677;28;20077;-71
2022/04/20 03:29:03;;;;;;;1.13;0.80;;;19.80;47.60;;;;;;6169851;28;20033;-71
2022/04/20 03:32:14;;;;;;;1.42;1.17;;;19.70;47.60;;;;;;6147165;29;20027;-71
2022/04/20 03:35:16;;;;;;;1.40;1.15;;;19.70;47.60;;;;;;6146974;29;20130;-72
2022/04/20 03:38:16;;;;;;;1.10;1.00;;;19.70;47.60;;;;;;6147092;29;20078;-72
2022/04/20 03:41:17;;;;;;;1.65;1.10;;;19.70;47.60;;;;;;6146782;29;20439;-71
2022/04/20 03:44:17;;;;;;;1.30;1.02;;;19.70;47.60;;;;;;6146807;28;20110;-71
2022/04/20 03:47:18;;;;;;;2.30;1.20;;;19.70;47.60;;;;;;6146803;28;20066;-71
2022/04/20 03:50:18;;;;;;;1.67;1.10;;;19.70;47.60;;;;;;6150295;28;20038;-70
2022/04/20 03:53:19;;;;;;;1.27;1.10;;;19.70;47.60;;;;;;6151021;28;20035;-72
2022/04/20 03:56:19;;;;;;;1.52;1.05;;;19.70;47.60;;;;;;6170681;28;20019;-72
2022/04/20 03:59:20;;;;;;;2.00;1.15;;;19.70;47.60;;;;;;6169852;28;20142;-72
2022/04/20 04:02:21;;;;;;;1.27;1.10;;;19.70;47.60;;;;;;6170381;28;20410;-70
2022/04/20 04:05:22;;;;;;;1.48;1.02;;;19.70;47.70;;;;;;6170687;28;20114;-71
2022/04/20 04:08:23;;;;;;;1.50;1.20;;;19.70;47.60;;;;;;6170367;28;20545;-70
2022/04/20 04:11:23;;;;;;;2.00;1.17;;;19.70;47.60;;;;;;6169727;28;20086;-72
2022/04/20 04:14:25;;;;;;;1.65;0.98;;;19.70;47.60;;;;;;6170333;28;20026;-71
2022/04/20 04:17:26;;;;;;;1.30;0.95;;;19.70;47.60;;;;;;6170618;28;20113;-72
2022/04/20 04:20:26;;;;;;;1.33;0.90;;;19.70;47.60;;;;;;6170521;28;20444;-71
2022/04/20 04:23:27;;;;;;;2.00;1.35;;;19.80;47.60;;;;;;6169616;28;20027;-71
2022/04/20 04:26:30;;;;;;;1.23;0.90;;;19.80;47.60;;;;;;6170354;28;20030;-71
2022/04/20 04:29:31;;;;;;;1.15;0.93;;;19.80;47.50;;;;;;6170681;28;20074;-71
2022/04/20 04:32:32;;;;;;;1.30;0.90;;;19.80;47.50;;;;;;6170486;28;20034;-70
2022/04/20 04:35:33;;;;;;;1.80;1.20;;;19.80;47.50;;;;;;6170012;28;20027;-71
2022/04/20 04:38:34;;;;;;;1.30;0.90;;;19.80;47.50;;;;;;6170358;28;20027;-71
2022/04/20 04:41:34;;;;;;;1.38;0.98;;;19.80;47.40;;;;;;6170658;28;20507;-71
2022/04/20 04:44:35;;;;;;;1.27;1.10;;;19.80;47.50;;;;;;6144545;28;20471;-71
2022/04/20 04:50:55;;;;;;;1.60;0.82;;;19.80;47.50;;;;;;6146167;28;20402;-70
2022/04/20 04:53:55;;;;;;;1.27;1.00;;;19.80;47.40;;;;;;6155591;28;20248;-71
2022/04/20 04:56:56;;;;;;;1.50;1.08;;;19.80;47.50;;;;;;6170236;28;20287;-70
2022/04/20 05:00:40;;;;;;;2.05;0.95;;;19.80;47.40;;;;;;6170050;28;20086;-71
2022/04/20 05:03:41;;;;;;;1.08;0.85;;;19.80;47.40;;;;;;6123305;28;20031;-71
2022/04/20 05:06:43;;;;;;;1.30;1.00;;;19.80;47.30;;;;;;6119155;29;20223;-71
2022/04/20 05:09:44;;;;;;;0.80;0.80;;;19.80;47.40;;;;;;6122622;29;20110;-71
2022/04/20 05:12:45;;;;;;;1.63;1.10;;;19.80;47.40;;;;;;6122361;29;20055;-71
2022/04/20 05:15:45;;;;;;;1.70;1.13;;;19.80;47.30;;;;;;6122410;29;20511;-71
2022/04/20 05:18:46;;;;;;;1.40;1.00;;;19.80;47.30;;;;;;6123080;29;20107;-72
2022/04/20 05:21:46;;;;;;;0.88;0.80;;;19.80;47.30;;;;;;6122204;29;20036;-71
2022/04/20 05:24:47;;;;;;;1.40;0.98;;;19.80;47.30;;;;;;6126325;29;20569;-71
2022/04/20 05:27:47;;;;;;;1.15;0.95;;;19.80;47.30;;;;;;6126494;29;20079;-71
2022/04/20 05:30:48;;;;;;;1.00;0.73;;;19.80;47.30;;;;;;6140790;28;20023;-71
2022/04/20 05:33:49;;;;;;;1.08;0.90;;;19.80;47.20;;;;;;6150122;29;20241;-70
2022/04/20 05:43:28;;;;;;;1.20;1.02;;;19.80;47.20;;;;;;6145657;29;20020;-71
2022/04/20 05:46:29;;;;;;;1.33;1.08;;;19.80;47.30;;;;;;6125899;29;20038;-70
2022/04/20 05:49:29;;;;;;;0.73;0.70;;;19.80;47.20;;;;;;6126063;29;20414;-70
2022/04/20 05:52:30;;;;;;;1.25;1.10;;;19.80;47.20;;;;;;6125966;29;20071;-71
2022/04/20 05:55:31;;;;;;;1.17;0.88;;;19.80;47.00;;;;;;6169541;28;20059;-71
2022/04/20 05:58:31;;;;;;;1.20;1.10;;;19.80;47.10;;;;;;6174164;28;20054;-71
2022/04/20 06:01:33;;;;;;;1.08;0.75;;;19.80;47.10;;;;;;6147174;28;20475;-71
2022/04/20 06:04:34;;;;;;;1.63;1.13;;;19.80;47.00;;;;;;6151523;28;20023;-72
2022/04/20 06:07:34;;;;;;;1.20;0.90;;;19.80;47.00;;;;;;6151337;28;20395;-70
2022/04/20 06:10:35;;;;;;;1.70;1.08;;;19.80;47.00;;;;;;6148632;28;20030;-71
2022/04/20 06:13:36;;;;;;;1.48;1.10;;;19.80;47.00;;;;;;6151395;28;20079;-72
2022/04/20 06:16:36;;;;;;;1.80;1.10;;;19.80;47.00;;;;;;6151752;28;20027;-72
2022/04/20 06:19:37;;;;;;;1.88;1.20;;;19.80;47.00;;;;;;6151087;28;20031;-71
2022/04/20 06:22:37;;;;;;;2.55;0.85;;;19.80;47.10;;;;;;6151130;28;20383;-72
2022/04/20 06:25:38;;;;;;;1.50;1.00;;;19.80;47.10;;;;;;6151040;28;20050;-71
2022/04/20 06:28:38;;;;;;;1.20;0.90;;;19.80;47.10;;;;;;6150978;28;20398;-71
2022/04/20 06:31:40;;;;;;;1.80;1.20;;;19.80;47.10;;;;;;6150707;28;20471;-72
2022/04/20 06:34:40;;;;;;;1.38;0.98;;;19.80;47.10;;;;;;6149619;28;20491;-71
2022/04/20 06:37:41;;;;;;;1.20;1.00;;;19.80;47.20;;;;;;6158747;28;20031;-71
2022/04/20 06:40:41;;;;;;;1.52;1.05;;;19.80;47.10;;;;;;6174690;28;20027;-71
2022/04/20 06:43:42;;;;;;;1.30;1.00;;;19.80;47.10;;;;;;6162795;28;20034;-70
2022/04/20 06:46:42;;;;;;;1.52;1.00;;;19.80;47.10;;;;;;6126882;29;20501;-71
2022/04/20 06:49:43;;;;;;;1.05;0.90;;;19.80;47.10;;;;;;6126564;29;20035;-70
2022/04/20 06:59:26;;;;;;;2.03;1.40;;;19.80;47.10;;;;;;6154939;28;20109;-71
2022/04/20 07:02:26;;;;;;;1.38;0.90;;;19.80;47.10;;;;;;6174252;28;20050;-72
2022/04/20 07:05:27;;;;;;;1.58;1.08;;;19.80;47.20;;;;;;6173735;28;20502;-70
2022/04/20 07:08:28;;;;;;;1.35;0.98;;;19.80;47.10;;;;;;6174191;28;20031;-70
2022/04/20 07:11:29;;;;;;;1.58;1.10;;;19.80;47.20;;;;;;6173960;28;20089;-70
2022/04/20 07:14:29;;;;;;;1.40;0.90;;;19.80;47.10;;;;;;6173572;28;20477;-71
2022/04/20 07:17:30;;;;;;;1.58;1.10;;;19.80;47.10;;;;;;6173660;28;20105;-71
2022/04/20 07:20:30;;;;;;;1.98;1.08;;;19.80;47.00;;;;;;6173761;28;20500;-72
2022/04/20 07:23:31;;;;;;;1.10;1.00;;;19.80;47.00;;;;;;6153756;28;20277;-71
2022/04/20 07:26:32;;;;;;;1.33;1.02;;;19.80;47.10;;;;;;6149688;29;20165;-72
2022/04/20 07:29:32;;;;;;;1.23;0.90;;;19.80;47.00;;;;;;6147983;28;20039;-72
2022/04/20 07:32:33;;;;;;;1.67;1.10;;;19.80;47.10;;;;;;6149662;29;20027;-70
2022/04/20 07:35:33;;;;;;;1.38;1.00;;;19.80;47.10;;;;;;6149265;29;20398;-71
2022/04/20 07:38:34;;;;;;;1.48;1.08;;;19.80;47.10;;;;;;6149540;29;20106;-72
2022/04/20 07:41:34;;;;;;;0.93;0.80;;;19.80;47.10;;;;;;6156685;28;20113;-72
2022/04/20 07:44:35;;;;;;;1.23;0.90;;;19.80;47.10;;;;;;6147208;28;20027;-71
2022/04/20 07:47:35;;;;;;;1.15;1.00;;;19.80;47.10;;;;;;6124974;29;20345;-71
2022/04/20 07:50:36;;;;;;;1.17;1.00;;;19.80;47.10;;;;;;6125487;29;20040;-70
2022/04/20 07:53:37;;;;;;;1.85;1.00;;;19.80;47.00;;;;;;6138221;28;20034;-71
2022/04/20 07:56:37;;;;;;;1.33;0.93;;;19.80;47.00;;;;;;6171327;28;20474;-71
2022/04/20 07:59:38;;;;;;;1.45;0.85;;;19.80;47.10;;;;;;6172715;28;20105;-71
2022/04/20 08:02:39;;;;;;;1.10;0.90;;;19.80;47.10;;;;;;6173464;28;20027;-71
2022/04/20 08:05:41;;;;;;;1.65;1.25;;;19.80;47.00;;;;;;6173022;28;20357;-71
2022/04/20 08:08:41;;;;;;;0.98;0.82;;;19.80;47.10;;;;;;6172698;28;20078;-71
2022/04/20 08:11:42;;;;;;;1.52;1.02;;;19.80;47.00;;;;;;6172740;28;20116;-71
2022/04/20 08:14:42;;;;;;;0.73;0.70;;;19.80;47.00;;;;;;6172770;28;20023;-72
2022/04/20 08:17:42;;;;;;;1.17;0.80;;;19.80;47.00;;;;;;6172992;28;20023;-72
2022/04/20 08:20:43;;;;;;;1.00;0.88;;;19.80;47.10;;;;;;6172808;28;20030;-71
2022/04/20 08:23:44;;;;;;;2.80;1.17;;;19.80;47.00;;;;;;6172735;28;20438;-71
2022/04/20 08:26:44;;;;;;;0.90;0.80;;;19.80;47.00;;;;;;6172567;28;20031;-70
2022/04/20 08:29:46;;;;;;;1.30;0.90;;;19.80;47.10;;;;;;6165844;28;20069;-70
2022/04/20 08:32:46;;;;;;;1.00;0.90;;;19.80;47.00;;;;;;6149365;29;20039;-71
2022/04/20 08:35:47;;;;;;;2.63;1.15;;;19.80;47.00;;;;;;6147063;29;20050;-71
2022/04/20 08:38:48;;;;;;;1.00;0.85;;;19.80;47.00;;;;;;6148644;29;20426;-71
2022/04/20 08:41:49;;;;;;;1.13;0.90;;;19.80;47.10;;;;;;6148333;29;20110;-71
2022/04/20 08:44:51;;;;;;;1.20;0.98;;;19.80;47.00;;;;;;6133384;29;20051;-70
2022/04/20 08:47:53;;;;;;;1.15;0.63;;;19.80;47.00;;;;;;6124827;29;20043;-71
2022/04/20 08:50:53;;;;;;;1.30;0.82;;;19.80;47.10;;;;;;6124541;29;20051;-71
2022/04/20 08:53:54;;;;;;;1.40;0.98;;;19.80;47.10;;;;;;6142610;28;20025;-71
2022/04/20 09:00:21;;;;;;;1.20;0.90;;;19.80;47.00;;;;;;6177019;28;20054;-72
2022/04/20 09:03:22;;;;;;;0.98;0.70;;;19.80;46.90;;;;;;6176915;28;20031;-72
2022/04/20 09:06:23;;;;;;;1.00;0.90;;;19.80;47.00;;;;;;6176686;28;20035;-72
2022/04/20 09:09:29;;;;;;;1.65;0.95;;;19.80;47.00;;;;;;6176736;28;20027;-71
2022/04/20 09:12:30;;;;;;;1.35;0.93;;;19.80;47.00;;;;;;6177143;28;20110;-71
2022/04/20 09:15:32;;;;;;;1.17;0.90;;;19.80;47.10;;;;;;6176594;28;20046;-70
2022/04/20 09:18:33;;;;;;;0.77;0.77;;;19.80;46.90;;;;;;6176515;28;20041;-70
2022/04/20 09:21:34;;;;;;;1.17;0.90;;;19.80;47.10;;;;;;6176513;28;20026;-71
2022/04/20 09:24:34;;;;;;;1.30;0.90;;;19.80;47.00;;;;;;6176119;28;20098;-72
2022/04/20 09:27:37;;;;;;;0.70;0.70;;;19.80;46.90;;;;;;6176301;28;20039;-71
2022/04/20 09:30:40;;;;;;;1.63;1.10;;;19.80;47.00;;;;;;6162755;28;20032;-71
2022/04/20 09:33:43;;;;;;;1.42;1.00;;;19.80;47.00;;;;;;6151821;29;20118;-70
2022/04/20 09:36:45;;;;;;;1.10;0.80;;;19.80;46.90;;;;;;6152165;29;20016;-71
2022/04/20 09:39:47;;;;;;;1.20;0.90;;;19.80;46.90;;;;;;6152526;29;20042;-71
2022/04/20 09:43:06;;;;;;;1.23;1.00;;;19.80;46.90;;;;;;6152434;29;20438;-70
2022/04/20 09:49:54;;;;;;;0.80;0.70;;;19.80;47.00;;;;;;6126310;29;20036;-70
2022/04/20 09:52:59;;;;;;;1.67;1.02;;;19.80;47.00;;;;;;6130033;28;20055;-70
2022/04/20 09:56:23;;;;;;;1.38;0.70;;;19.80;47.00;;;;;;6176001;28;20027;-71
2022/04/20 09:59:23;;;;;;;1.25;0.70;;;19.80;47.00;;;;;;6175723;28;20051;-69
2022/04/20 10:02:25;;;;;;;1.40;0.85;;;19.80;47.00;;;;;;6176769;28;20434;-70
2022/04/20 10:05:25;;;;;;;0.88;0.55;;;19.80;47.00;;;;;;6175485;28;20030;-71
2022/04/20 10:08:27;;;;;;;1.67;0.80;;;19.80;47.00;;;;;;6175320;28;20042;-71
2022/04/20 10:11:27;;;;;;;0.88;0.68;;;19.80;47.00;;;;;;6175679;28;20027;-71
2022/04/20 10:17:56;;;;;;;1.15;0.90;;;19.80;47.00;;;;;;6176177;28;20409;-70
2022/04/20 10:21:01;;;;;;;1.30;0.93;;;19.80;47.10;;;;;;6175568;28;20035;-70
2022/04/20 10:24:05;;;;;;;1.33;0.82;;;19.80;47.00;;;;;;6175533;28;20034;-72
2022/04/20 10:27:13;;;;;;;1.33;0.93;;;19.80;46.90;;;;;;6175157;28;20098;-70
2022/04/20 10:30:32;;;;;;;1.52;1.15;;;19.80;47.50;;;;;;6163480;28;20490;-71
2022/04/20 10:33:34;;;;;;;0.85;0.68;;;19.80;47.00;;;;;;6152170;28;20034;-70
2022/04/20 10:36:35;;;;;;;1.27;0.90;;;19.80;47.00;;;;;;6150553;29;20026;-70
2022/04/20 10:39:39;;;;;;;0.80;0.80;;;19.80;46.90;;;;;;6150933;29;20051;-71
2022/04/20 10:42:40;;;;;;;1.02;0.80;;;19.80;47.10;;;;;;6150704;29;20035;-69
2022/04/20 10:46:01;;;;;;;0.55;0.55;;;19.80;47.00;;;;;;6129223;29;20083;-71
2022/04/20 10:49:16;;;;;;;1.10;0.70;;;19.80;47.10;;;;;;6126678;29;20040;-70
2022/04/20 10:52:24;;;;;;;1.20;0.90;;;19.80;47.00;;;;;;6126444;29;20739;-71
2022/04/20 10:55:45;;;;;;;0.88;0.73;;;19.80;47.00;;;;;;6168581;28;20069;-70
2022/04/20 10:59:04;;;;;;;1.00;0.65;;;19.80;47.00;;;;;;6174669;28;20310;-70
2022/04/20 11:02:06;;;;;;;0.90;0.80;;;19.80;47.10;;;;;;6174436;28;20045;-72
2022/04/20 11:05:14;;;;;;;0.85;0.70;;;19.80;47.10;;;;;;6174070;28;20487;-70
2022/04/20 11:08:15;;;;;;;1.38;0.93;;;19.80;47.10;;;;;;6174128;28;20043;-72
2022/04/20 11:21:27;;;;;;;1.05;0.80;;;19.80;47.20;;;;;;6173434;28;20035;-71
2022/04/20 11:24:29;;;;;;;0.93;0.77;;;19.80;47.20;;;;;;6173534;28;20493;-70
2022/04/20 11:27:37;;;;;;;0.88;0.70;;;19.80;47.10;;;;;;6173678;28;20041;-70
2022/04/20 11:30:37;;;;;;;1.45;0.70;;;19.80;47.20;;;;;;6160050;28;20360;-70
2022/04/20 11:33:39;;;;;;;0.98;0.70;;;19.80;47.20;;;;;;6149751;29;20027;-70
2022/04/20 11:36:42;;;;;;;0.93;0.70;;;19.80;47.30;;;;;;6149282;29;20042;-71
2022/04/20 11:39:43;;;;;;;0.85;0.63;;;19.80;47.30;;;;;;6149381;29;20684;-70
2022/04/20 11:43:03;;;;;;;1.20;0.80;;;19.80;47.30;;;;;;6156859;28;20135;-70
2022/04/20 11:46:05;;;;;;;0.57;0.57;;;19.80;47.30;;;;;;6129303;28;20032;-72
2022/04/20 11:49:09;;;;;;;0.70;0.60;;;19.80;47.30;;;;;;6149487;28;20050;-71
2022/04/20 11:52:14;;;;;;;0.83;0.80;;;19.80;47.20;;;;;;6149171;28;20106;-72
2022/04/20 11:55:14;;;;;;;1.45;0.90;;;19.80;47.30;;;;;;6168918;28;20489;-71
2022/04/20 11:58:15;;;;;;;1.27;0.82;;;19.80;47.30;;;;;;6172887;28;20062;-71
2022/04/20 12:01:16;;;;;;;0.88;0.73;;;19.80;47.30;;;;;;6173117;28;20141;-70
2022/04/20 12:04:22;;;;;;;0.57;0.57;;;19.80;47.30;;;;;;6172682;28;20093;-70
2022/04/20 12:07:23;;;;;;;1.67;0.70;;;19.80;47.30;;;;;;6173806;28;20058;-71
2022/04/20 12:10:23;;;;;;;1.02;0.73;;;19.80;47.30;;;;;;6172791;28;20105;-69
2022/04/20 12:13:29;;;;;;;0.70;0.60;;;19.80;47.30;;;;;;6173042;28;20071;-71
2022/04/20 12:16:34;;;;;;;0.88;0.60;;;19.80;47.30;;;;;;6172518;28;20450;-71
2022/04/20 12:19:35;;;;;;;0.93;0.70;;;19.80;47.40;;;;;;6172814;28;20033;-72
2022/04/20 12:22:36;;;;;;;0.60;0.60;;;19.80;47.40;;;;;;6172729;28;20365;-70
2022/04/20 12:25:36;;;;;;;0.85;0.73;;;19.80;47.40;;;;;;6173090;28;20026;-71
2022/04/20 12:28:42;;;;;;;0.77;0.70;;;19.80;47.30;;;;;;6172181;28;20038;-70
2022/04/20 12:31:43;;;;;;;;;;;19.80;47.30;;;;;;6152413;28;20024;-70
2022/04/20 12:34:54;;;;;;;1.48;0.80;;;19.80;47.30;;;;;;6153766;29;20000;-71
2022/04/20 12:37:55;;;;;;;0.80;0.60;;;19.80;47.50;;;;;;6153712;29;20034;-71
2022/04/20 12:40:55;;;;;;;0.80;0.80;;;19.80;47.40;;;;;;6153727;29;20407;-70
2022/04/20 12:43:56;;;;;;;0.82;0.60;;;19.80;47.40;;;;;;6145449;29;20035;-71
2022/04/20 12:46:57;;;;;;;0.77;0.55;;;19.80;47.50;;;;;;6129678;29;20039;-71
2022/04/20 12:49:59;;;;;;;0.70;0.60;;;19.80;47.40;;;;;;6129742;29;20028;-71
2022/04/20 12:52:59;;;;;;;0.68;0.60;;;19.80;47.40;;;;;;6132991;28;20454;-71
2022/04/20 13:02:58;;;;;;;;;;;19.80;47.40;;;;;;6177748;28;20043;-70
2022/04/20 13:05:58;;;;;;;1.13;0.70;;;19.80;47.40;;;;;;6177777;28;20288;-71
2022/04/20 13:09:00;;;;;;;1.23;0.90;;;19.80;47.40;;;;;;6177857;28;20046;-70
2022/04/20 13:12:01;;;;;;;0.50;0.50;;;19.80;47.40;;;;;;6178090;28;20022;-71
2022/04/20 13:15:02;;;;;;;0.75;0.60;;;19.80;47.40;;;;;;6176944;28;20027;-71
2022/04/20 13:18:03;;;;;;;0.73;0.70;;;19.80;47.40;;;;;;6176935;28;20371;-71
2022/04/20 13:21:03;;;;;;;0.75;0.60;;;19.80;47.50;;;;;;6176847;28;20030;-72
2022/04/20 13:24:05;;;;;;;0.82;0.70;;;19.80;47.40;;;;;;6152639;29;20034;-71
2022/04/20 13:30:35;;;;;;;1.05;0.90;;;19.80;47.40;;;;;;6164277;28;20030;-72
2022/04/20 13:33:36;;;;;;;0.60;0.60;;;19.80;47.50;;;;;;6176580;28;20039;-71
2022/04/20 13:36:37;;;;;;;0.68;0.65;;;19.80;47.40;;;;;;6176173;28;20026;-71
2022/04/20 13:39:37;;;;;;;0.90;0.65;;;19.80;48.20;;;;;;6176451;28;20473;-70
2022/04/20 13:42:38;;;;;;;0.68;0.68;;;19.80;47.50;;;;;;6176573;28;20109;-70
2022/04/20 13:45:39;;;;;;;0.90;0.70;;;19.80;47.50;;;;;;6132991;28;20542;-70
2022/04/20 13:48:41;;;;;;;0.85;0.77;;;19.80;47.40;;;;;;6126931;29;20082;-71
2022/04/20 13:51:42;;;;;;;0.90;0.57;;;19.80;47.40;;;;;;6128412;29;20024;-71
2022/04/20 13:54:43;;;;;;;0.77;0.70;;;19.80;47.40;;;;;;6158661;28;20034;-71
2022/04/20 13:57:44;;;;;;;0.75;0.52;;;19.80;47.50;;;;;;6176737;28;20035;-72
2022/04/20 14:00:44;;;;;;;1.33;0.55;;;19.80;47.50;;;;;;6175303;28;20054;-71
2022/04/20 14:03:45;;;;;;;0.80;0.70;;;19.80;47.50;;;;;;6176044;28;20031;-70
2022/04/20 14:06:45;;;;;;;0.80;0.57;;;19.80;47.60;;;;;;6176000;28;20031;-70
2022/04/20 14:09:46;;;;;;;1.25;0.80;;;19.80;47.50;;;;;;6175268;28;20035;-72
2022/04/20 14:12:47;;;;;;;0.70;0.65;;;19.80;47.40;;;;;;6176259;28;20412;-71
2022/04/20 14:15:47;;;;;;;0.60;0.60;;;19.80;47.40;;;;;;6175362;28;20046;-70
2022/04/20 14:18:48;;;;;;;1.00;0.60;;;19.80;47.40;;;;;;6176106;28;20031;-72
2022/04/20 14:21:49;;;;;;;0.57;0.57;;;19.80;47.50;;;;;;6175739;28;20023;-71
2022/04/20 14:24:50;;;;;;;0.70;0.52;;;19.80;47.50;;;;;;6175139;28;20147;-70
2022/04/20 14:34:29;;;;;;;1.30;0.60;;;19.80;47.50;;;;;;6150851;29;20113;-70
2022/04/20 14:37:30;;;;;;;0.60;0.50;;;19.80;47.50;;;;;;6151912;28;20030;-71
2022/04/20 14:40:30;;;;;;;0.60;0.60;;;19.80;47.50;;;;;;6151528;28;20031;-70
2022/04/20 14:43:31;;;;;;;0.57;0.52;;;19.80;47.50;;;;;;6146475;29;20031;-72
2022/04/20 14:46:31;;;;;;;0.80;0.70;;;19.80;47.50;;;;;;6127116;29;20164;-71
2022/04/20 14:49:32;;;;;;;1.02;0.70;;;19.80;47.50;;;;;;6127328;29;20036;-71
2022/04/20 14:52:33;;;;;;;0.70;0.60;;;19.80;47.50;;;;;;6126354;29;20295;-71
2022/04/20 14:55:35;;;;;;;0.60;0.50;;;19.80;47.50;;;;;;6170300;28;20023;-70
2022/04/20 14:58:36;;;;;;;0.90;0.70;;;19.80;47.50;;;;;;6174454;28;20026;-71
2022/04/20 15:01:37;;;;;;;1.00;0.73;;;19.80;47.50;;;;;;6174342;28;20057;-71
2022/04/20 15:04:37;;;;;;;0.60;0.60;;;19.80;47.50;;;;;;6173993;28;20031;-71
2022/04/20 15:07:38;;;;;;;0.98;0.65;;;19.80;47.60;;;;;;6173915;28;20031;-71
2022/04/20 15:10:39;;;;;;;0.60;0.60;;;19.80;47.50;;;;;;6174168;28;20442;-70
2022/04/20 15:13:39;;;;;;;0.70;0.55;;;19.80;47.60;;;;;;6174469;28;20058;-71
2022/04/20 15:16:40;;;;;;;0.73;0.52;;;19.80;47.50;;;;;;6173923;28;20478;-72
2022/04/20 15:19:40;;;;;;;1.15;0.60;;;19.80;47.50;;;;;;6174789;28;20026;-70
2022/04/20 15:22:42;;;;;;;0.95;0.60;;;19.80;47.50;;;;;;6173690;28;20023;-70
2022/04/20 15:25:42;;;;;;;0.75;0.60;;;19.80;47.60;;;;;;6173854;28;20053;-71
2022/04/20 15:28:43;;;;;;;0.85;0.75;;;19.80;47.60;;;;;;6173416;28;20031;-71
2022/04/20 15:31:43;;;;;;;0.80;0.60;;;19.80;47.50;;;;;;6167153;28;20053;-71
2022/04/20 15:34:44;;;;;;;0.50;0.50;;;19.80;47.60;;;;;;6173869;28;20050;-71
2022/04/20 15:37:44;;;;;;;0.60;0.60;;;19.80;47.60;;;;;;6173495;28;20502;-70
2022/04/20 15:40:45;;;;;;;1.10;0.60;;;19.80;47.60;;;;;;6173764;28;20367;-71
2022/04/20 15:43:46;;;;;;;0.63;0.60;;;19.80;47.70;;;;;;6160575;28;20032;-72
2022/04/20 15:46:46;;;;;;;0.80;0.63;;;19.80;47.60;;;;;;6126033;29;20036;-71
2022/04/20 15:49:47;;;;;;;0.70;0.50;;;19.80;47.60;;;;;;6125452;29;20032;-71
2022/04/20 15:52:48;;;;;;;0.60;0.40;;;19.80;47.60;;;;;;6141675;28;20507;-72
2022/04/20 16:02:27;;;;;;;0.70;0.55;;;19.80;47.60;;;;;;6172203;28;20042;-71
2022/04/20 16:05:27;;;;;;;0.50;0.40;;;19.80;47.70;;;;;;6172955;28;20038;-71
2022/04/20 16:08:29;;;;;;;0.60;0.50;;;19.80;47.60;;;;;;6172668;28;20035;-71
2022/04/20 16:11:30;;;;;;;0.43;0.40;;;19.80;47.60;;;;;;6172747;28;20031;-70
2022/04/20 16:14:31;;;;;;;0.80;0.68;;;19.80;47.60;;;;;;6170087;28;20023;-70
2022/04/20 16:17:32;;;;;;;0.50;0.50;;;19.80;47.60;;;;;;6170770;28;20105;-71
2022/04/20 16:20:32;;;;;;;3.50;0.50;;;19.80;47.60;;;;;;6170777;28;20051;-70
2022/04/20 16:23:34;;;;;;;0.57;0.50;;;19.80;47.60;;;;;;6170577;28;20085;-70
2022/04/20 16:26:36;;;;;;;0.88;0.55;;;19.80;47.60;;;;;;6170366;28;20062;-71
2022/04/20 16:29:36;;;;;;;0.85;0.52;;;19.80;47.70;;;;;;6165085;28;20375;-70
2022/04/20 16:32:37;;;;;;;0.50;0.50;;;19.80;47.60;;;;;;6151989;28;20038;-71
2022/04/20 16:35:39;;;;;;;0.50;0.50;;;19.80;47.60;;;;;;6170521;28;20027;-70
2022/04/20 16:38:39;;;;;;;0.47;0.43;;;19.80;47.60;;;;;;6170518;28;20062;-70
2022/04/20 16:41:40;;;;;;;0.75;0.60;;;19.80;47.60;;;;;;6171078;28;20031;-71
2022/04/20 16:44:41;;;;;;;0.50;0.45;;;19.80;47.60;;;;;;6143244;28;20020;-71
2022/04/20 16:47:43;;;;;;;1.02;0.57;;;19.80;47.50;;;;;;6130589;28;20039;-72
2022/04/20 16:50:43;;;;;;;0.77;0.52;;;19.80;47.60;;;;;;6146923;28;20029;-71